メインページ
METAR-TAF:

METAR-TAF

空港 :

イカルイト, ヌナブト準州, カナダ

イカルイト空港

緯度: 63-45N, 経度: 068-33W, 海抜: 34m

現時点の気象観測

当レポートは26分前の10:43(UTC)に作成
北/北西の風 6kt
気温 0°C
湿度 93%
気圧 1015 hPa
視程: 3.2km
高度400ftの千切れ雲あり
高度700ftの曇り

METAR: CYFB 201043Z 33006KT 2SM BR BKN004 OVC007 M00/M01 A2997 RMK ST6SC2 VIS SE HIER SLP154

時間: 07:09 (11:09 UTC)

予報

当レポートは35分前の10:34(UTC)に作成
予報は20日の 10時(UTC)から 21日の 06時(UTC)まで有効
北西の風 8kt
視程: 0.8km
高度300ftの
着氷性の霧
20日の 10時(UTC)から 20日の 14時(UTC)まで一時的に
視程: 4.8km
高度600ftの千切れ雲あり
20日の 1400時(UTC)から
北/北西の風 8kt
視程: 10km
高度2500ftの千切れ雲あり
20日の 14時(UTC)から 20日の 17時(UTC)まで一時的に
高度400ftの雲はほとんどない
高度800ftの千切れ雲あり
20日の 1700時(UTC)から
変向風 3kt
視程: 10km
高度2000ftの千切れ雲あり
20日の 17時(UTC)から 20日の 24時(UTC)まで一時的に
高度2000ftの雲は散在している
21日の 0000時(UTC)から
の風 7kt
視程: 10km
高度3000ftの雲はほとんどない
高度9000ftの雲は散在している

TAF: CYFB 201034Z 2010/2106 32008KT 1/2SM FZFG VV003 TEMPO 2010/2014 3SM BR BKN006 FM201400 34008KT P6SM BKN025 TEMPO 2014/2017 FEW004 BKN008 FM201700 VRB03KT P6SM BKN020 TEMPO 2017/2024 SCT020 FM210000 09007KT P6SM FEW030 SCT090 RMK NXT FCST BY 201200Z

4,000以上の空港の気象観測と天気予報(METAR報とTAF報)

利用可能な観測所は地図上に黄色い丸と赤い丸で示す。

丸の上にカーソルを重ねると観測所名を参照できる。

次にクリックすると気象観測と天気予報を参照できる。

マップの切り替え:黒色「×」印の緑ボタンをクリックして拡大、「-」印の緑ボタンをクリックして縮小、緑色の三角印をクリックして隣りの地図に切り替え


METAR-TAF: